Terminal Aerodrome Forecast
Issued by NWS Twin Cities, MN

Home | Current Version | Previous Version | Text Only | Print | Product List | Glossary On
Versions: 1 2 3 4 5 6 7 8 9 10 11 12 13 14 15 16 17 18 19 20 21 22 23 24 25 26 27 28 29 30
000
FTUS43 KMPX 221134
TAFSTC
TAF
KSTC 221134Z 2212/2312 05008KT P6SM FEW009 OVC080
     FM221500 04010KT 1 1/2SM -SN BR VV008
     FM221700 03012G18KT 3/4SM -SN BR VV006
     FM230200 35012G18KT 4SM -FZDZ BR OVC006
     FM230800 34012KT P6SM OVC008=

USA.gov is the U.S. government's official web portal to all federal, state and local government web resources and services.